createdAt,value
2019-06-27T00:00:32.000Z,59.32
2019-06-27T00:14:33.000Z,59.15
2019-06-27T00:35:33.000Z,59.63
2019-06-27T00:38:32.000Z,59.30
2019-06-27T00:48:32.000Z,59.25
2019-06-27T00:49:32.000Z,59.61
2019-06-27T00:51:32.000Z,59.20
2019-06-27T00:59:32.000Z,58.90
2019-06-27T01:06:32.000Z,58.70
2019-06-27T01:15:32.000Z,59.46
2019-06-27T01:20:32.000Z,59.28
2019-06-27T01:23:32.000Z,59.62
2019-06-27T01:28:32.000Z,59.28
2019-06-27T01:30:32.000Z,59.34
2019-06-27T01:32:32.000Z,59.29
2019-06-27T01:34:32.000Z,59.37
2019-06-27T01:35:32.000Z,59.67
2019-06-27T01:42:33.000Z,61.22
2019-06-27T01:53:33.000Z,64.47
2019-06-27T01:54:32.000Z,64.64
2019-06-27T02:02:33.000Z,64.78
2019-06-27T02:04:33.000Z,64.99
2019-06-27T02:10:32.000Z,65.55
2019-06-27T02:15:32.000Z,66.52
2019-06-27T02:17:32.000Z,66.40
2019-06-27T02:18:31.000Z,66.70
2019-06-27T02:19:32.000Z,66.65
2019-06-27T02:20:32.000Z,66.40
2019-06-27T02:21:32.000Z,66.80
2019-06-27T02:22:32.000Z,66.92
2019-06-27T02:25:32.000Z,66.98
2019-06-27T02:26:32.000Z,67.15
2019-06-27T02:32:32.000Z,67.35
2019-06-27T02:33:32.000Z,67.51
2019-06-27T02:36:32.000Z,68.17
2019-06-27T02:38:32.000Z,68.54
2019-06-27T02:39:32.000Z,68.73
2019-06-27T02:43:32.000Z,68.83
2019-06-27T02:44:32.000Z,68.44
2019-06-27T02:45:32.000Z,68.60
2019-06-27T02:47:32.000Z,69.04
2019-06-27T02:58:32.000Z,69.25
2019-06-27T02:59:32.000Z,69.53
2019-06-27T03:03:32.000Z,70.16
2019-06-27T03:05:32.000Z,70.58
2019-06-27T03:06:32.000Z,70.50
2019-06-27T03:10:32.000Z,70.55
2019-06-27T03:11:31.000Z,70.86
2019-06-27T03:15:32.000Z,70.81
2019-06-27T03:23:31.000Z,70.28
2019-06-27T03:31:32.000Z,71.38
2019-06-27T03:33:32.000Z,71.51
2019-06-27T03:39:32.000Z,71.85
2019-06-27T03:40:32.000Z,71.83
2019-06-27T03:44:32.000Z,71.33
2019-06-27T03:45:32.000Z,71.61
2019-06-27T03:46:32.000Z,71.91
2019-06-27T03:52:33.000Z,73.22
2019-06-27T03:53:32.000Z,73.01
2019-06-27T03:59:32.000Z,73.30
2019-06-27T04:03:32.000Z,73.58
2019-06-27T04:10:32.000Z,74.12
2019-06-27T04:12:32.000Z,74.15
2019-06-27T04:17:32.000Z,74.09
2019-06-27T04:18:32.000Z,74.31
2019-06-27T04:19:32.000Z,74.46
2019-06-27T04:29:32.000Z,74.20
2019-06-27T04:41:32.000Z,74.12
2019-06-27T04:57:32.000Z,73.86
2019-06-27T04:58:32.000Z,74.03
2019-06-27T05:02:32.000Z,73.55
2019-06-27T05:05:32.000Z,73.63
2019-06-27T05:09:32.000Z,73.98
2019-06-27T05:11:32.000Z,74.02
2019-06-27T05:12:32.000Z,74.40
2019-06-27T05:19:32.000Z,73.98
2019-06-27T05:20:32.000Z,73.76
2019-06-27T05:23:32.000Z,73.84
2019-06-27T05:24:32.000Z,74.03
2019-06-27T05:26:32.000Z,73.97
2019-06-27T05:27:32.000Z,73.95
2019-06-27T05:36:32.000Z,73.65
2019-06-27T05:42:32.000Z,74.04
2019-06-27T05:44:32.000Z,73.96
2019-06-27T05:48:32.000Z,73.43
2019-06-27T05:56:32.000Z,73.15
2019-06-27T05:59:32.000Z,73.36
2019-06-27T06:02:32.000Z,72.62
2019-06-27T06:06:32.000Z,72.41
2019-06-27T06:13:32.000Z,72.08
2019-06-27T06:15:32.000Z,72.43
2019-06-27T06:16:32.000Z,72.54
2019-06-27T06:18:32.000Z,72.35
2019-06-27T06:19:32.000Z,72.44
2019-06-27T06:20:32.000Z,72.52
2019-06-27T06:21:32.000Z,72.45
2019-06-27T06:22:32.000Z,72.35
2019-06-27T06:24:32.000Z,72.18
2019-06-27T06:27:32.000Z,71.64
2019-06-27T06:39:32.000Z,70.72
2019-06-27T06:42:32.000Z,70.21
2019-06-27T06:46:31.000Z,69.90
2019-06-27T06:52:32.000Z,69.66
2019-06-27T06:58:31.000Z,69.59
2019-06-27T07:18:32.000Z,68.25
2019-06-27T07:39:32.000Z,66.62
2019-06-27T07:48:32.000Z,66.39
2019-06-27T08:09:32.000Z,62.37
2019-06-27T08:11:32.000Z,63.33
2019-06-27T08:13:32.000Z,63.74
2019-06-27T08:29:32.000Z,62.45
2019-06-27T08:40:33.000Z,61.40
2019-06-27T08:43:32.000Z,61.21
2019-06-27T08:58:31.000Z,59.32
2019-06-27T09:12:31.000Z,58.35
2019-06-27T09:30:32.000Z,56.48
2019-06-27T09:41:32.000Z,56.09
2019-06-27T09:51:32.000Z,55.93
2019-06-27T10:04:32.000Z,54.44
2019-06-27T10:06:32.000Z,54.01
2019-06-27T10:12:32.000Z,53.66
2019-06-27T10:15:32.000Z,52.58
2019-06-27T10:16:31.000Z,52.98
2019-06-27T11:10:32.000Z,45.23
2019-06-27T11:11:32.000Z,44.50
2019-06-27T11:14:31.000Z,45.23
2019-06-27T11:50:32.000Z,40.78
2019-06-27T11:52:32.000Z,40.10
2019-06-27T12:01:32.000Z,39.60
2019-06-27T12:36:32.000Z,35.73
2019-06-27T12:45:32.000Z,34.89
2019-06-27T13:43:31.000Z,31.26
2019-06-27T14:20:31.000Z,29.46
2019-06-27T14:22:32.000Z,29.78
2019-06-27T14:42:31.000Z,28.40
2019-06-27T14:45:32.000Z,28.22
2019-06-27T14:47:32.000Z,29.26
2019-06-27T15:11:32.000Z,29.04
2019-06-27T15:12:32.000Z,28.62
2019-06-27T15:14:33.000Z,28.68
2019-06-27T15:22:31.000Z,28.32
2019-06-27T15:24:31.000Z,27.19
2019-06-27T15:43:31.000Z,26.99
2019-06-27T15:49:35.000Z,26.09
2019-06-27T15:50:32.000Z,26.42
2019-06-27T16:14:31.000Z,24.11
2019-06-27T16:15:32.000Z,24.54
2019-06-27T16:26:32.000Z,24.25
2019-06-27T17:51:32.000Z,23.27
2019-06-27T18:15:33.000Z,22.42
2019-06-27T18:23:32.000Z,23.07
2019-06-27T18:30:32.000Z,23.16
2019-06-27T20:12:31.000Z,29.49
2019-06-27T20:13:31.000Z,29.50
2019-06-27T20:14:31.000Z,29.67
2019-06-27T20:15:31.000Z,29.67
2019-06-27T20:16:31.000Z,29.72
2019-06-27T20:17:31.000Z,29.52
2019-06-27T20:18:31.000Z,29.52
2019-06-27T20:19:31.000Z,29.53
2019-06-27T20:20:31.000Z,29.59
2019-06-27T20:21:31.000Z,29.64
2019-06-27T20:22:31.000Z,29.56
2019-06-27T20:23:31.000Z,30.05
2019-06-27T20:24:31.000Z,29.80
2019-06-27T20:25:31.000Z,29.73
2019-06-27T20:26:31.000Z,30.32
2019-06-27T20:27:31.000Z,30.22
2019-06-27T20:28:31.000Z,30.14
2019-06-27T20:29:31.000Z,30.20
2019-06-27T20:30:31.000Z,30.05
2019-06-27T20:31:31.000Z,29.97
2019-06-27T20:32:31.000Z,29.89
2019-06-27T20:33:31.000Z,29.89
2019-06-27T20:34:31.000Z,30.08
2019-06-27T20:35:31.000Z,30.88
2019-06-27T20:36:31.000Z,30.93
2019-06-27T20:37:31.000Z,31.07
2019-06-27T20:38:31.000Z,31.19
2019-06-27T20:39:31.000Z,31.38
2019-06-27T20:40:31.000Z,31.39
2019-06-27T20:41:31.000Z,31.56
2019-06-27T20:42:31.000Z,31.89
2019-06-27T20:43:31.000Z,31.96
2019-06-27T20:44:31.000Z,31.89
2019-06-27T20:45:31.000Z,31.78
2019-06-27T20:46:31.000Z,31.90
2019-06-27T20:47:31.000Z,31.83
2019-06-27T20:48:31.000Z,32.10
2019-06-27T20:49:31.000Z,31.97
2019-06-27T20:50:31.000Z,31.86
2019-06-27T20:51:31.000Z,31.94
2019-06-27T20:52:31.000Z,32.47
2019-06-27T20:53:31.000Z,32.67
2019-06-27T20:54:31.000Z,32.60
2019-06-27T20:55:31.000Z,32.32
2019-06-27T20:56:31.000Z,32.48
2019-06-27T20:57:31.000Z,32.90
2019-06-27T20:58:31.000Z,33.36
2019-06-27T20:59:31.000Z,34.26
2019-06-27T21:00:31.000Z,34.33
2019-06-27T21:01:31.000Z,34.50
2019-06-27T21:02:31.000Z,34.18
2019-06-27T21:03:31.000Z,34.55
2019-06-27T21:04:31.000Z,34.33
2019-06-27T21:05:31.000Z,34.26
2019-06-27T21:06:31.000Z,34.32
2019-06-27T21:07:32.000Z,34.92
2019-06-27T21:08:32.000Z,35.05
2019-06-27T21:09:32.000Z,35.17
2019-06-27T21:10:31.000Z,35.60
2019-06-27T21:11:32.000Z,35.65
2019-06-27T21:12:31.000Z,35.57
2019-06-27T21:13:31.000Z,35.93
2019-06-27T21:14:32.000Z,36.01
2019-06-27T21:15:32.000Z,35.72
2019-06-27T21:16:31.000Z,35.86
2019-06-27T21:17:32.000Z,36.21
2019-06-27T21:18:32.000Z,36.27
2019-06-27T21:19:32.000Z,36.15
2019-06-27T21:20:31.000Z,36.42
2019-06-27T21:21:31.000Z,36.28
2019-06-27T21:22:31.000Z,36.15
2019-06-27T21:23:31.000Z,36.11
2019-06-27T21:24:31.000Z,36.06
2019-06-27T21:25:31.000Z,36.16
2019-06-27T21:26:31.000Z,36.10
2019-06-27T21:27:32.000Z,35.95
2019-06-27T21:28:31.000Z,35.84
2019-06-27T21:29:31.000Z,35.58
2019-06-27T21:30:31.000Z,36.11
2019-06-27T21:31:31.000Z,35.81
2019-06-27T21:32:31.000Z,36.42
2019-06-27T21:33:31.000Z,36.65
2019-06-27T21:34:31.000Z,36.19
2019-06-27T21:35:31.000Z,36.26
2019-06-27T21:36:31.000Z,35.98
2019-06-27T21:37:31.000Z,36.86
2019-06-27T21:38:31.000Z,37.49
2019-06-27T21:39:31.000Z,37.36
2019-06-27T21:40:31.000Z,37.60
2019-06-27T21:41:31.000Z,38.27
2019-06-27T21:42:31.000Z,37.51
2019-06-27T21:43:31.000Z,37.38
2019-06-27T21:44:31.000Z,37.55
2019-06-27T21:45:31.000Z,37.78
2019-06-27T21:46:32.000Z,38.03
2019-06-27T21:47:32.000Z,37.93
2019-06-27T21:48:31.000Z,38.15
2019-06-27T21:49:31.000Z,38.12
2019-06-27T21:50:31.000Z,38.22
2019-06-27T21:51:31.000Z,38.74
2019-06-27T21:52:31.000Z,38.49
2019-06-27T21:53:31.000Z,38.35
2019-06-27T21:54:31.000Z,38.33
2019-06-27T21:55:31.000Z,38.93
2019-06-27T21:56:31.000Z,38.70
2019-06-27T21:57:31.000Z,38.72
2019-06-27T21:58:31.000Z,39.22
2019-06-27T21:59:31.000Z,38.98
2019-06-27T22:00:31.000Z,38.99
2019-06-27T22:01:31.000Z,38.80
2019-06-27T22:02:30.000Z,38.92
2019-06-27T22:03:31.000Z,38.72
2019-06-27T22:04:31.000Z,38.48
2019-06-27T22:05:31.000Z,39.18
2019-06-27T22:06:31.000Z,38.93
2019-06-27T22:07:33.000Z,39.43
2019-06-27T22:08:31.000Z,40.04
2019-06-27T22:09:31.000Z,40.22
2019-06-27T22:10:31.000Z,40.17
2019-06-27T22:11:31.000Z,39.71
2019-06-27T22:12:30.000Z,39.89
2019-06-27T22:13:31.000Z,40.19
2019-06-27T22:14:31.000Z,40.66
2019-06-27T22:15:31.000Z,40.52
2019-06-27T22:16:30.000Z,40.85
2019-06-27T22:17:30.000Z,40.52
2019-06-27T22:18:31.000Z,40.56
2019-06-27T22:19:31.000Z,40.26
2019-06-27T22:20:31.000Z,40.62
2019-06-27T22:21:31.000Z,40.38
2019-06-27T22:22:31.000Z,40.95
2019-06-27T22:23:30.000Z,41.00
2019-06-27T22:24:31.000Z,40.72
2019-06-27T22:25:31.000Z,40.44
2019-06-27T22:26:31.000Z,40.21
2019-06-27T22:27:31.000Z,40.11
2019-06-27T22:28:31.000Z,40.24
2019-06-27T22:29:31.000Z,40.29
2019-06-27T22:30:31.000Z,40.52
2019-06-27T22:31:31.000Z,40.37
2019-06-27T22:32:31.000Z,40.57
2019-06-27T22:33:31.000Z,40.69
2019-06-27T22:34:31.000Z,40.39
2019-06-27T22:35:31.000Z,41.04
2019-06-27T22:36:32.000Z,41.14
2019-06-27T22:37:31.000Z,40.94
2019-06-27T22:38:31.000Z,41.20
2019-06-27T22:39:31.000Z,40.74
2019-06-27T22:40:31.000Z,41.72
2019-06-27T22:41:31.000Z,41.54
2019-06-27T22:42:31.000Z,40.98
2019-06-27T22:43:31.000Z,41.17
2019-06-27T22:44:31.000Z,41.99
2019-06-27T22:45:31.000Z,41.60
2019-06-27T22:46:31.000Z,42.36
2019-06-27T22:47:31.000Z,42.71
2019-06-27T22:48:31.000Z,42.42
2019-06-27T22:49:31.000Z,42.79
2019-06-27T22:50:31.000Z,42.66
2019-06-27T22:51:31.000Z,42.29
2019-06-27T22:52:34.000Z,42.43
2019-06-27T22:53:31.000Z,42.58
2019-06-27T22:54:31.000Z,42.60
2019-06-27T22:55:31.000Z,42.77
2019-06-27T22:56:31.000Z,42.61
2019-06-27T22:57:31.000Z,42.50
2019-06-27T22:58:31.000Z,42.44
2019-06-27T22:59:31.000Z,42.11
2019-06-27T23:00:31.000Z,42.52
2019-06-27T23:01:31.000Z,42.29
2019-06-27T23:02:31.000Z,42.75
2019-06-27T23:03:31.000Z,43.34
2019-06-27T23:04:31.000Z,43.92
2019-06-27T23:05:31.000Z,43.87
2019-06-27T23:06:31.000Z,43.47
2019-06-27T23:07:31.000Z,43.49
2019-06-27T23:08:31.000Z,43.60
2019-06-27T23:09:31.000Z,43.66
2019-06-27T23:10:30.000Z,43.79
2019-06-27T23:11:31.000Z,44.64
2019-06-27T23:12:31.000Z,45.20
2019-06-27T23:13:31.000Z,45.56
2019-06-27T23:14:31.000Z,45.03
2019-06-27T23:15:30.000Z,45.23
2019-06-27T23:16:31.000Z,44.45
2019-06-27T23:17:31.000Z,44.01
2019-06-27T23:18:31.000Z,43.94
2019-06-27T23:19:31.000Z,43.88
2019-06-27T23:20:31.000Z,44.30
2019-06-27T23:21:31.000Z,43.89
2019-06-27T23:22:30.000Z,43.32
2019-06-27T23:23:30.000Z,43.69
2019-06-27T23:24:31.000Z,43.65
2019-06-27T23:25:31.000Z,43.64
2019-06-27T23:26:31.000Z,43.43
2019-06-27T23:27:30.000Z,43.72
2019-06-27T23:28:31.000Z,43.41
2019-06-27T23:29:31.000Z,43.73
2019-06-27T23:30:31.000Z,44.09
2019-06-27T23:31:31.000Z,44.13
2019-06-27T23:32:31.000Z,44.11
2019-06-27T23:33:31.000Z,44.17
2019-06-27T23:34:31.000Z,43.59
2019-06-27T23:35:31.000Z,43.42
2019-06-27T23:36:31.000Z,44.31
2019-06-27T23:37:31.000Z,44.57
2019-06-27T23:38:31.000Z,44.27
2019-06-27T23:39:30.000Z,43.95
2019-06-27T23:40:31.000Z,43.62
2019-06-27T23:41:31.000Z,43.66
2019-06-27T23:42:30.000Z,44.42
2019-06-27T23:43:30.000Z,44.32
2019-06-27T23:44:30.000Z,44.29
2019-06-27T23:45:30.000Z,44.88
2019-06-27T23:46:31.000Z,45.08
2019-06-27T23:47:31.000Z,44.35
2019-06-27T23:48:31.000Z,44.67
2019-06-27T23:49:31.000Z,44.90
2019-06-27T23:50:31.000Z,44.96
2019-06-27T23:51:30.000Z,44.72
2019-06-27T23:52:30.000Z,44.78
2019-06-27T23:53:31.000Z,44.96
2019-06-27T23:54:30.000Z,45.67
2019-06-27T23:55:31.000Z,46.04
2019-06-27T23:56:31.000Z,45.08
2019-06-27T23:57:31.000Z,44.82
2019-06-27T23:58:31.000Z,44.89
2019-06-27T23:59:31.000Z,44.99
